sensor_id;sensor_type;location;lat;lon;timestamp;pressure;altitude;pressure_sealevel;temperature
53667;BMP280;39568;51.026;5.468;2023-05-07T00:01:44;100724.22;;;14.34
53667;BMP280;39568;51.026;5.468;2023-05-07T00:04:11;100723.47;;;14.34
53667;BMP280;39568;51.026;5.468;2023-05-07T00:06:41;100725.66;;;14.35
53667;BMP280;39568;51.026;5.468;2023-05-07T00:09:10;100727.47;;;14.27
53667;BMP280;39568;51.026;5.468;2023-05-07T00:11:37;100730.59;;;14.31
53667;BMP280;39568;51.026;5.468;2023-05-07T00:14:06;100731.94;;;14.38
53667;BMP280;39568;51.026;5.468;2023-05-07T00:16:33;100733.69;;;14.35
53667;BMP280;39568;51.026;5.468;2023-05-07T00:19:10;100733.38;;;14.39
53667;BMP280;39568;51.026;5.468;2023-05-07T00:21:40;100733.28;;;14.44
53667;BMP280;39568;51.026;5.468;2023-05-07T00:24:09;100733.28;;;14.44
53667;BMP280;39568;51.026;5.468;2023-05-07T00:26:39;100733.56;;;14.59
53667;BMP280;39568;51.026;5.468;2023-05-07T00:29:07;100732.00;;;14.64
53667;BMP280;39568;51.026;5.468;2023-05-07T00:31:34;100737.59;;;14.66
53667;BMP280;39568;51.026;5.468;2023-05-07T00:34:01;100742.63;;;14.69
53667;BMP280;39568;51.026;5.468;2023-05-07T00:36:28;100733.38;;;14.70
53667;BMP280;39568;51.026;5.468;2023-05-07T00:38:57;100729.44;;;14.71
53667;BMP280;39568;51.026;5.468;2023-05-07T00:41:27;100726.97;;;14.73
53667;BMP280;39568;51.026;5.468;2023-05-07T00:43:54;100719.56;;;14.79
53667;BMP280;39568;51.026;5.468;2023-05-07T00:46:22;100712.56;;;14.76
53667;BMP280;39568;51.026;5.468;2023-05-07T00:48:50;100708.84;;;14.79
53667;BMP280;39568;51.026;5.468;2023-05-07T00:51:21;100705.53;;;14.73
53667;BMP280;39568;51.026;5.468;2023-05-07T00:53:48;100702.88;;;14.73
53667;BMP280;39568;51.026;5.468;2023-05-07T00:56:18;100694.09;;;14.73
53667;BMP280;39568;51.026;5.468;2023-05-07T00:58:47;100693.94;;;14.71
53667;BMP280;39568;51.026;5.468;2023-05-07T01:01:14;100692.69;;;14.72
53667;BMP280;39568;51.026;5.468;2023-05-07T01:03:47;100700.50;;;14.70
53667;BMP280;39568;51.026;5.468;2023-05-07T01:06:17;100695.03;;;14.75
53667;BMP280;39568;51.026;5.468;2023-05-07T01:08:48;100693.81;;;14.76
53667;BMP280;39568;51.026;5.468;2023-05-07T01:11:27;100692.34;;;14.75
53667;BMP280;39568;51.026;5.468;2023-05-07T01:14:09;100684.56;;;14.77
53667;BMP280;39568;51.026;5.468;2023-05-07T01:16:37;100681.56;;;14.81
53667;BMP280;39568;51.026;5.468;2023-05-07T01:19:08;100684.13;;;14.73
53667;BMP280;39568;51.026;5.468;2023-05-07T01:21:38;100681.53;;;14.68
53667;BMP280;39568;51.026;5.468;2023-05-07T01:24:09;100674.94;;;14.69
53667;BMP280;39568;51.026;5.468;2023-05-07T01:26:38;100672.50;;;14.71
53667;BMP280;39568;51.026;5.468;2023-05-07T01:29:05;100676.91;;;14.68
53667;BMP280;39568;51.026;5.468;2023-05-07T01:31:33;100678.97;;;14.75
53667;BMP280;39568;51.026;5.468;2023-05-07T01:34:03;100668.56;;;14.72
53667;BMP280;39568;51.026;5.468;2023-05-07T01:36:35;100669.09;;;14.70
53667;BMP280;39568;51.026;5.468;2023-05-07T01:39:08;100655.72;;;14.70
53667;BMP280;39568;51.026;5.468;2023-05-07T01:41:36;100656.22;;;14.69
53667;BMP280;39568;51.026;5.468;2023-05-07T01:44:07;100668.69;;;14.66
53667;BMP280;39568;51.026;5.468;2023-05-07T01:46:43;100664.66;;;14.60
53667;BMP280;39568;51.026;5.468;2023-05-07T01:49:09;100666.72;;;14.54
53667;BMP280;39568;51.026;5.468;2023-05-07T01:51:39;100670.19;;;14.49
53667;BMP280;39568;51.026;5.468;2023-05-07T01:54:06;100664.13;;;14.48
53667;BMP280;39568;51.026;5.468;2023-05-07T01:56:41;100661.97;;;14.47
53667;BMP280;39568;51.026;5.468;2023-05-07T01:59:13;100665.94;;;14.40
53667;BMP280;39568;51.026;5.468;2023-05-07T02:01:39;100674.28;;;14.37
53667;BMP280;39568;51.026;5.468;2023-05-07T02:04:06;100672.13;;;14.35
53667;BMP280;39568;51.026;5.468;2023-05-07T02:06:33;100669.22;;;14.33
53667;BMP280;39568;51.026;5.468;2023-05-07T02:09:02;100670.47;;;14.32
53667;BMP280;39568;51.026;5.468;2023-05-07T02:11:29;100669.78;;;14.32
53667;BMP280;39568;51.026;5.468;2023-05-07T02:14:00;100683.44;;;14.28
53667;BMP280;39568;51.026;5.468;2023-05-07T02:16:30;100678.09;;;14.28
53667;BMP280;39568;51.026;5.468;2023-05-07T02:19:05;100676.84;;;14.29
53667;BMP280;39568;51.026;5.468;2023-05-07T02:21:36;100684.66;;;14.27
53667;BMP280;39568;51.026;5.468;2023-05-07T02:24:08;100691.47;;;14.28
53667;BMP280;39568;51.026;5.468;2023-05-07T02:26:35;100695.56;;;14.29
53667;BMP280;39568;51.026;5.468;2023-05-07T02:29:06;100695.81;;;14.31
53667;BMP280;39568;51.026;5.468;2023-05-07T02:31:33;100691.88;;;14.32
53667;BMP280;39568;51.026;5.468;2023-05-07T02:34:06;100701.56;;;14.35
53667;BMP280;39568;51.026;5.468;2023-05-07T02:36:43;100689.09;;;14.38
53667;BMP280;39568;51.026;5.468;2023-05-07T02:39:09;100693.97;;;14.39
53667;BMP280;39568;51.026;5.468;2023-05-07T02:41:36;100686.88;;;14.42
53667;BMP280;39568;51.026;5.468;2023-05-07T02:44:05;100693.84;;;14.45
53667;BMP280;39568;51.026;5.468;2023-05-07T02:46:31;100684.19;;;14.42
53667;BMP280;39568;51.026;5.468;2023-05-07T02:49:05;100681.19;;;14.45
53667;BMP280;39568;51.026;5.468;2023-05-07T02:51:39;100679.03;;;14.44
53667;BMP280;39568;51.026;5.468;2023-05-07T02:54:06;100681.81;;;14.38
53667;BMP280;39568;51.026;5.468;2023-05-07T02:56:32;100680.38;;;14.37
53667;BMP280;39568;51.026;5.468;2023-05-07T02:59:01;100681.06;;;14.38
53667;BMP280;39568;51.026;5.468;2023-05-07T03:01:31;100678.22;;;14.36
53667;BMP280;39568;51.026;5.468;2023-05-07T03:04:09;100679.31;;;14.40
53667;BMP280;39568;51.026;5.468;2023-05-07T03:06:38;100677.63;;;14.43
53667;BMP280;39568;51.026;5.468;2023-05-07T03:09:07;100687.16;;;14.38
53667;BMP280;39568;51.026;5.468;2023-05-07T03:11:41;100678.34;;;14.43
53667;BMP280;39568;51.026;5.468;2023-05-07T03:14:10;100667.38;;;14.28
53667;BMP280;39568;51.026;5.468;2023-05-07T03:16:57;100666.31;;;14.18
53667;BMP280;39568;51.026;5.468;2023-05-07T03:19:24;100666.44;;;14.26
53667;BMP280;39568;51.026;5.468;2023-05-07T03:21:50;100665.72;;;14.25
53667;BMP280;39568;51.026;5.468;2023-05-07T03:24:17;100667.47;;;14.23
53667;BMP280;39568;51.026;5.468;2023-05-07T03:26:44;100665.88;;;14.14
53667;BMP280;39568;51.026;5.468;2023-05-07T03:29:13;100676.13;;;13.97
53667;BMP280;39568;51.026;5.468;2023-05-07T03:31:40;100674.09;;;14.03
53667;BMP280;39568;51.026;5.468;2023-05-07T03:34:08;100677.19;;;14.07
53667;BMP280;39568;51.026;5.468;2023-05-07T03:36:37;100674.66;;;13.96
53667;BMP280;39568;51.026;5.468;2023-05-07T03:39:04;100675.72;;;13.93
53667;BMP280;39568;51.026;5.468;2023-05-07T03:41:32;100678.88;;;13.91
53667;BMP280;39568;51.026;5.468;2023-05-07T03:43:59;100673.25;;;13.95
53667;BMP280;39568;51.026;5.468;2023-05-07T03:46:26;100673.84;;;13.88
53667;BMP280;39568;51.026;5.468;2023-05-07T03:48:56;100677.66;;;13.92
53667;BMP280;39568;51.026;5.468;2023-05-07T03:51:33;100672.50;;;13.94
53667;BMP280;39568;51.026;5.468;2023-05-07T03:54:01;100674.25;;;13.92
53667;BMP280;39568;51.026;5.468;2023-05-07T03:56:29;100662.09;;;13.91
53667;BMP280;39568;51.026;5.468;2023-05-07T03:59:08;100677.34;;;13.96
53667;BMP280;39568;51.026;5.468;2023-05-07T04:01:44;100680.88;;;14.04
53667;BMP280;39568;51.026;5.468;2023-05-07T04:04:13;100685.22;;;14.07
53667;BMP280;39568;51.026;5.468;2023-05-07T04:06:47;100682.25;;;14.11
53667;BMP280;39568;51.026;5.468;2023-05-07T04:09:13;100681.75;;;14.12
53667;BMP280;39568;51.026;5.468;2023-05-07T04:11:43;100682.38;;;14.18
53667;BMP280;39568;51.026;5.468;2023-05-07T04:14:10;100687.94;;;14.20
53667;BMP280;39568;51.026;5.468;2023-05-07T04:16:37;100687.94;;;14.20
53667;BMP280;39568;51.026;5.468;2023-05-07T04:19:09;100688.75;;;14.15
53667;BMP280;39568;51.026;5.468;2023-05-07T04:21:38;100682.28;;;14.24
53667;BMP280;39568;51.026;5.468;2023-05-07T04:24:07;100681.97;;;14.27
53667;BMP280;39568;51.026;5.468;2023-05-07T04:26:33;100683.84;;;14.32
53667;BMP280;39568;51.026;5.468;2023-05-07T04:29:00;100683.03;;;14.24
53667;BMP280;39568;51.026;5.468;2023-05-07T04:31:27;100674.28;;;14.37
53667;BMP280;39568;51.026;5.468;2023-05-07T04:33:54;100681.63;;;14.49
53667;BMP280;39568;51.026;5.468;2023-05-07T04:36:20;100681.06;;;14.38
53667;BMP280;39568;51.026;5.468;2023-05-07T04:38:47;100679.75;;;14.44
53667;BMP280;39568;51.026;5.468;2023-05-07T04:41:15;100676.19;;;14.55
53667;BMP280;39568;51.026;5.468;2023-05-07T04:43:42;100672.19;;;14.61
53667;BMP280;39568;51.026;5.468;2023-05-07T04:46:09;100671.38;;;14.66
53667;BMP280;39568;51.026;5.468;2023-05-07T04:48:35;100667.84;;;14.71
53667;BMP280;39568;51.026;5.468;2023-05-07T04:51:02;100672.38;;;14.76
53667;BMP280;39568;51.026;5.468;2023-05-07T04:53:31;100679.09;;;14.83
53667;BMP280;39568;51.026;5.468;2023-05-07T04:55:57;100681.47;;;14.87
53667;BMP280;39568;51.026;5.468;2023-05-07T04:58:26;100682.06;;;14.93
53667;BMP280;39568;51.026;5.468;2023-05-07T05:00:56;100681.44;;;15.00
53667;BMP280;39568;51.026;5.468;2023-05-07T05:03:23;100692.56;;;15.04
53667;BMP280;39568;51.026;5.468;2023-05-07T05:05:50;100685.78;;;15.16
53667;BMP280;39568;51.026;5.468;2023-05-07T05:08:18;100696.16;;;15.19
53667;BMP280;39568;51.026;5.468;2023-05-07T05:10:49;100697.31;;;15.24
53667;BMP280;39568;51.026;5.468;2023-05-07T05:13:16;100699.34;;;15.31
53667;BMP280;39568;51.026;5.468;2023-05-07T05:15:50;100692.44;;;15.35
53667;BMP280;39568;51.026;5.468;2023-05-07T05:18:17;100701.41;;;15.51
53667;BMP280;39568;51.026;5.468;2023-05-07T05:20:43;100700.97;;;15.60
53667;BMP280;39568;51.026;5.468;2023-05-07T05:23:10;100704.44;;;15.68
53667;BMP280;39568;51.026;5.468;2023-05-07T05:25:39;100708.97;;;15.73
53667;BMP280;39568;51.026;5.468;2023-05-07T05:28:07;100700.47;;;15.82
53667;BMP280;39568;51.026;5.468;2023-05-07T05:30:34;100711.34;;;15.97
53667;BMP280;39568;51.026;5.468;2023-05-07T05:33:02;100712.03;;;16.11
53667;BMP280;39568;51.026;5.468;2023-05-07T05:35:31;100718.03;;;16.25
53667;BMP280;39568;51.026;5.468;2023-05-07T05:37:58;100720.63;;;16.38
53667;BMP280;39568;51.026;5.468;2023-05-07T05:40:24;100722.00;;;16.52
53667;BMP280;39568;51.026;5.468;2023-05-07T05:42:51;100726.16;;;16.60
53667;BMP280;39568;51.026;5.468;2023-05-07T05:45:19;100726.78;;;16.74
53667;BMP280;39568;51.026;5.468;2023-05-07T05:47:46;100728.66;;;16.86
53667;BMP280;39568;51.026;5.468;2023-05-07T05:50:17;100719.72;;;16.91
53667;BMP280;39568;51.026;5.468;2023-05-07T05:52:43;100722.50;;;17.07
53667;BMP280;39568;51.026;5.468;2023-05-07T05:55:10;100721.69;;;17.27
53667;BMP280;39568;51.026;5.468;2023-05-07T05:57:37;100736.63;;;17.43
53667;BMP280;39568;51.026;5.468;2023-05-07T06:00:08;100734.19;;;17.67
53667;BMP280;39568;51.026;5.468;2023-05-07T06:02:37;100730.97;;;17.92
53667;BMP280;39568;51.026;5.468;2023-05-07T06:05:04;100727.41;;;18.12
53667;BMP280;39568;51.026;5.468;2023-05-07T06:07:32;100742.50;;;18.30
53667;BMP280;39568;51.026;5.468;2023-05-07T06:09:59;100734.94;;;18.43
53667;BMP280;39568;51.026;5.468;2023-05-07T06:12:27;100739.06;;;18.52
53667;BMP280;39568;51.026;5.468;2023-05-07T06:14:54;100738.69;;;18.63
53667;BMP280;39568;51.026;5.468;2023-05-07T06:17:21;100737.94;;;18.70
53667;BMP280;39568;51.026;5.468;2023-05-07T06:19:47;100740.78;;;18.80
53667;BMP280;39568;51.026;5.468;2023-05-07T06:22:14;100743.47;;;18.87
53667;BMP280;39568;51.026;5.468;2023-05-07T06:24:42;100738.78;;;18.95
53667;BMP280;39568;51.026;5.468;2023-05-07T06:27:09;100736.25;;;18.97
53667;BMP280;39568;51.026;5.468;2023-05-07T06:29:36;100734.06;;;19.03
53667;BMP280;39568;51.026;5.468;2023-05-07T06:32:06;100743.91;;;19.16
53667;BMP280;39568;51.026;5.468;2023-05-07T06:34:33;100737.56;;;19.28
53667;BMP280;39568;51.026;5.468;2023-05-07T06:37:05;100743.06;;;19.38
53667;BMP280;39568;51.026;5.468;2023-05-07T06:39:32;100742.09;;;19.51
53667;BMP280;39568;51.026;5.468;2023-05-07T06:42:01;100740.97;;;19.61
53667;BMP280;39568;51.026;5.468;2023-05-07T06:44:31;100739.22;;;19.81
53667;BMP280;39568;51.026;5.468;2023-05-07T06:46:57;100751.53;;;19.91
53667;BMP280;39568;51.026;5.468;2023-05-07T06:49:24;100752.94;;;20.00
53667;BMP280;39568;51.026;5.468;2023-05-07T06:51:51;100749.31;;;20.05
53667;BMP280;39568;51.026;5.468;2023-05-07T06:54:18;100753.97;;;20.04
53667;BMP280;39568;51.026;5.468;2023-05-07T06:56:48;100759.56;;;20.24
53667;BMP280;39568;51.026;5.468;2023-05-07T06:59:17;100761.72;;;20.25
53667;BMP280;39568;51.026;5.468;2023-05-07T07:01:46;100759.31;;;20.12
53667;BMP280;39568;51.026;5.468;2023-05-07T07:04:13;100766.16;;;20.13
53667;BMP280;39568;51.026;5.468;2023-05-07T07:06:40;100761.56;;;20.23
53667;BMP280;39568;51.026;5.468;2023-05-07T07:09:07;100756.25;;;20.33
53667;BMP280;39568;51.026;5.468;2023-05-07T07:11:34;100763.91;;;20.44
53667;BMP280;39568;51.026;5.468;2023-05-07T07:14:03;100765.72;;;20.58
53667;BMP280;39568;51.026;5.468;2023-05-07T07:16:33;100767.41;;;20.71
53667;BMP280;39568;51.026;5.468;2023-05-07T07:18:59;100767.47;;;20.63
53667;BMP280;39568;51.026;5.468;2023-05-07T07:21:27;100770.81;;;20.71
53667;BMP280;39568;51.026;5.468;2023-05-07T07:23:57;100769.78;;;20.84
53667;BMP280;39568;51.026;5.468;2023-05-07T07:26:26;100763.16;;;20.94
53667;BMP280;39568;51.026;5.468;2023-05-07T07:28:52;100764.72;;;21.15
53667;BMP280;39568;51.026;5.468;2023-05-07T07:31:19;100764.91;;;20.82
53667;BMP280;39568;51.026;5.468;2023-05-07T07:33:47;100761.44;;;20.89
53667;BMP280;39568;51.026;5.468;2023-05-07T07:36:15;100763.91;;;21.22
53667;BMP280;39568;51.026;5.468;2023-05-07T07:38:42;100765.06;;;20.84
53667;BMP280;39568;51.026;5.468;2023-05-07T07:41:10;100768.69;;;21.40
53667;BMP280;39568;51.026;5.468;2023-05-07T07:43:38;100763.06;;;22.01
53667;BMP280;39568;51.026;5.468;2023-05-07T07:46:05;100769.53;;;22.15
53667;BMP280;39568;51.026;5.468;2023-05-07T07:48:35;100769.69;;;22.65
53667;BMP280;39568;51.026;5.468;2023-05-07T07:51:09;100770.84;;;22.71
53667;BMP280;39568;51.026;5.468;2023-05-07T07:53:36;100771.66;;;22.93
53667;BMP280;39568;51.026;5.468;2023-05-07T07:56:03;100764.09;;;23.41
53667;BMP280;39568;51.026;5.468;2023-05-07T07:58:29;100771.94;;;22.88
53667;BMP280;39568;51.026;5.468;2023-05-07T08:00:56;100772.16;;;23.51
53667;BMP280;39568;51.026;5.468;2023-05-07T08:03:23;100778.44;;;23.84
53667;BMP280;39568;51.026;5.468;2023-05-07T08:05:50;100777.53;;;24.33
53667;BMP280;39568;51.026;5.468;2023-05-07T08:08:18;100769.91;;;24.53
53667;BMP280;39568;51.026;5.468;2023-05-07T08:10:45;100781.88;;;24.27
53667;BMP280;39568;51.026;5.468;2023-05-07T08:13:15;100772.75;;;24.22
53667;BMP280;39568;51.026;5.468;2023-05-07T08:15:41;100783.22;;;24.37
53667;BMP280;39568;51.026;5.468;2023-05-07T08:18:09;100776.84;;;24.44
53667;BMP280;39568;51.026;5.468;2023-05-07T08:20:35;100766.19;;;24.81
53667;BMP280;39568;51.026;5.468;2023-05-07T08:23:04;100777.13;;;24.60
53667;BMP280;39568;51.026;5.468;2023-05-07T08:25:34;100772.00;;;24.87
53667;BMP280;39568;51.026;5.468;2023-05-07T08:28:03;100769.66;;;25.28
53667;BMP280;39568;51.026;5.468;2023-05-07T08:30:31;100782.56;;;24.48
53667;BMP280;39568;51.026;5.468;2023-05-07T08:32:58;100777.66;;;23.72
53667;BMP280;39568;51.026;5.468;2023-05-07T08:35:25;100779.78;;;23.43
53667;BMP280;39568;51.026;5.468;2023-05-07T08:37:52;100784.97;;;23.29
53667;BMP280;39568;51.026;5.468;2023-05-07T08:40:19;100788.22;;;22.88
53667;BMP280;39568;51.026;5.468;2023-05-07T08:42:56;100788.16;;;23.07
53667;BMP280;39568;51.026;5.468;2023-05-07T08:45:24;100793.75;;;23.79
53667;BMP280;39568;51.026;5.468;2023-05-07T08:47:56;100790.00;;;24.48
53667;BMP280;39568;51.026;5.468;2023-05-07T08:50:24;100795.13;;;24.32
53667;BMP280;39568;51.026;5.468;2023-05-07T08:52:53;100794.34;;;23.47
53667;BMP280;39568;51.026;5.468;2023-05-07T08:55:22;100786.94;;;23.38
53667;BMP280;39568;51.026;5.468;2023-05-07T08:57:50;100789.00;;;23.59
53667;BMP280;39568;51.026;5.468;2023-05-07T09:00:19;100794.00;;;23.32
53667;BMP280;39568;51.026;5.468;2023-05-07T09:02:46;100793.75;;;22.99
53667;BMP280;39568;51.026;5.468;2023-05-07T09:05:17;100794.13;;;23.34
53667;BMP280;39568;51.026;5.468;2023-05-07T09:07:43;100803.44;;;23.92
53667;BMP280;39568;51.026;5.468;2023-05-07T09:10:11;100802.59;;;23.59
53667;BMP280;39568;51.026;5.468;2023-05-07T09:12:39;100806.31;;;23.54
53667;BMP280;39568;51.026;5.468;2023-05-07T09:15:07;100806.28;;;23.23
53667;BMP280;39568;51.026;5.468;2023-05-07T09:17:35;100804.06;;;23.01
53667;BMP280;39568;51.026;5.468;2023-05-07T09:20:08;100803.38;;;22.91
53667;BMP280;39568;51.026;5.468;2023-05-07T09:22:36;100800.50;;;22.69
53667;BMP280;39568;51.026;5.468;2023-05-07T09:25:04;100802.22;;;22.36
53667;BMP280;39568;51.026;5.468;2023-05-07T09:27:31;100804.53;;;22.59
53667;BMP280;39568;51.026;5.468;2023-05-07T09:30:00;100799.38;;;22.53
53667;BMP280;39568;51.026;5.468;2023-05-07T09:32:39;100806.91;;;22.26
53667;BMP280;39568;51.026;5.468;2023-05-07T09:35:14;100802.66;;;22.42
53667;BMP280;39568;51.026;5.468;2023-05-07T09:37:42;100805.19;;;22.21
53667;BMP280;39568;51.026;5.468;2023-05-07T09:40:20;100802.94;;;22.75
53667;BMP280;39568;51.026;5.468;2023-05-07T09:42:48;100801.66;;;22.86
53667;BMP280;39568;51.026;5.468;2023-05-07T09:45:15;100804.38;;;23.45
53667;BMP280;39568;51.026;5.468;2023-05-07T09:47:43;100810.09;;;24.43
53667;BMP280;39568;51.026;5.468;2023-05-07T09:50:12;100816.22;;;25.20
53667;BMP280;39568;51.026;5.468;2023-05-07T09:52:40;100810.06;;;25.20
53667;BMP280;39568;51.026;5.468;2023-05-07T09:55:07;100817.84;;;25.83
53667;BMP280;39568;51.026;5.468;2023-05-07T09:57:36;100813.41;;;27.56
53667;BMP280;39568;51.026;5.468;2023-05-07T10:00:04;100815.84;;;28.97
53667;BMP280;39568;51.026;5.468;2023-05-07T10:02:35;100810.03;;;30.26
53667;BMP280;39568;51.026;5.468;2023-05-07T10:05:04;100803.41;;;31.31
53667;BMP280;39568;51.026;5.468;2023-05-07T10:07:31;100810.53;;;32.54
53667;BMP280;39568;51.026;5.468;2023-05-07T10:09:59;100816.59;;;27.79
53667;BMP280;39568;51.026;5.468;2023-05-07T10:12:27;100816.06;;;25.64
53667;BMP280;39568;51.026;5.468;2023-05-07T10:15:05;100815.41;;;26.62
53667;BMP280;39568;51.026;5.468;2023-05-07T10:17:35;100812.47;;;26.83
53667;BMP280;39568;51.026;5.468;2023-05-07T10:20:05;100808.66;;;26.13
53667;BMP280;39568;51.026;5.468;2023-05-07T10:22:37;100810.59;;;24.84
53667;BMP280;39568;51.026;5.468;2023-05-07T10:25:06;100818.31;;;24.12
53667;BMP280;39568;51.026;5.468;2023-05-07T10:27:36;100819.97;;;23.75
53667;BMP280;39568;51.026;5.468;2023-05-07T10:30:12;100823.56;;;23.28
53667;BMP280;39568;51.026;5.468;2023-05-07T10:32:44;100809.50;;;22.91
53667;BMP280;39568;51.026;5.468;2023-05-07T10:35:16;100823.88;;;23.22
53667;BMP280;39568;51.026;5.468;2023-05-07T10:37:44;100830.84;;;23.35
53667;BMP280;39568;51.026;5.468;2023-05-07T10:40:12;100832.16;;;23.24
53667;BMP280;39568;51.026;5.468;2023-05-07T10:42:53;100832.03;;;23.13
53667;BMP280;39568;51.026;5.468;2023-05-07T10:45:21;100829.06;;;22.90
53667;BMP280;39568;51.026;5.468;2023-05-07T10:48:11;100836.47;;;23.08
53667;BMP280;39568;51.026;5.468;2023-05-07T10:50:45;100833.75;;;23.18
53667;BMP280;39568;51.026;5.468;2023-05-07T10:53:23;100839.06;;;22.77
53667;BMP280;39568;51.026;5.468;2023-05-07T10:56:26;100842.34;;;22.66
53667;BMP280;39568;51.026;5.468;2023-05-07T10:58:58;100844.19;;;22.64
53667;BMP280;39568;51.026;5.468;2023-05-07T11:01:52;100837.50;;;22.94
53667;BMP280;39568;51.026;5.468;2023-05-07T11:04:20;100846.47;;;22.48
53667;BMP280;39568;51.026;5.468;2023-05-07T11:07:26;100841.47;;;22.73
53667;BMP280;39568;51.026;5.468;2023-05-07T11:10:01;100837.06;;;22.78
53667;BMP280;39568;51.026;5.468;2023-05-07T11:12:50;100846.47;;;22.58
53667;BMP280;39568;51.026;5.468;2023-05-07T11:15:36;100827.91;;;22.54
53667;BMP280;39568;51.026;5.468;2023-05-07T11:18:09;100846.75;;;22.52
53667;BMP280;39568;51.026;5.468;2023-05-07T11:20:45;100842.03;;;22.34
53667;BMP280;39568;51.026;5.468;2023-05-07T11:26:13;100849.88;;;21.84
53667;BMP280;39568;51.026;5.468;2023-05-07T11:28:42;100852.56;;;21.31
53667;BMP280;39568;51.026;5.468;2023-05-07T11:31:10;100851.88;;;20.96
53667;BMP280;39568;51.026;5.468;2023-05-07T11:33:38;100855.53;;;20.91
53667;BMP280;39568;51.026;5.468;2023-05-07T11:36:05;100859.25;;;20.78
53667;BMP280;39568;51.026;5.468;2023-05-07T11:38:35;100862.16;;;20.80
53667;BMP280;39568;51.026;5.468;2023-05-07T11:41:05;100866.41;;;20.66
53667;BMP280;39568;51.026;5.468;2023-05-07T11:43:37;100867.28;;;20.52
53667;BMP280;39568;51.026;5.468;2023-05-07T11:46:08;100870.69;;;20.52
53667;BMP280;39568;51.026;5.468;2023-05-07T11:48:35;100878.56;;;20.08
53667;BMP280;39568;51.026;5.468;2023-05-07T11:51:04;100877.25;;;20.17
53667;BMP280;39568;51.026;5.468;2023-05-07T11:53:39;100877.53;;;20.29
53667;BMP280;39568;51.026;5.468;2023-05-07T11:56:06;100882.38;;;20.30
53667;BMP280;39568;51.026;5.468;2023-05-07T11:58:36;100888.22;;;20.44
53667;BMP280;39568;51.026;5.468;2023-05-07T12:01:08;100880.69;;;20.18
53667;BMP280;39568;51.026;5.468;2023-05-07T12:03:36;100878.19;;;19.80
53667;BMP280;39568;51.026;5.468;2023-05-07T12:06:06;100880.31;;;19.89
53667;BMP280;39568;51.026;5.468;2023-05-07T12:08:33;100881.56;;;19.88
53667;BMP280;39568;51.026;5.468;2023-05-07T12:11:02;100886.28;;;19.80
53667;BMP280;39568;51.026;5.468;2023-05-07T12:13:29;100886.28;;;19.33
53667;BMP280;39568;51.026;5.468;2023-05-07T12:15:56;100886.50;;;19.12
53667;BMP280;39568;51.026;5.468;2023-05-07T12:18:25;100889.75;;;19.10
53667;BMP280;39568;51.026;5.468;2023-05-07T12:20:57;100884.91;;;19.24
53667;BMP280;39568;51.026;5.468;2023-05-07T12:23:25;100892.19;;;19.46
53667;BMP280;39568;51.026;5.468;2023-05-07T12:25:53;100896.66;;;19.59
53667;BMP280;39568;51.026;5.468;2023-05-07T12:28:19;100904.13;;;19.75
53667;BMP280;39568;51.026;5.468;2023-05-07T12:30:50;100897.00;;;19.63
53667;BMP280;39568;51.026;5.468;2023-05-07T12:33:25;100902.00;;;19.66
53667;BMP280;39568;51.026;5.468;2023-05-07T12:36:02;100910.69;;;19.57
53667;BMP280;39568;51.026;5.468;2023-05-07T12:38:34;100910.03;;;19.81
53667;BMP280;39568;51.026;5.468;2023-05-07T12:41:03;100917.00;;;20.24
53667;BMP280;39568;51.026;5.468;2023-05-07T12:43:30;100919.38;;;20.45
53667;BMP280;39568;51.026;5.468;2023-05-07T12:45:59;100916.09;;;20.95
53667;BMP280;39568;51.026;5.468;2023-05-07T12:48:27;100927.00;;;21.05
53667;BMP280;39568;51.026;5.468;2023-05-07T12:50:55;100925.66;;;21.14
53667;BMP280;39568;51.026;5.468;2023-05-07T12:53:23;100924.03;;;21.28
53667;BMP280;39568;51.026;5.468;2023-05-07T12:55:51;100934.59;;;21.94
53667;BMP280;39568;51.026;5.468;2023-05-07T12:58:18;100933.31;;;21.95
53667;BMP280;39568;51.026;5.468;2023-05-07T13:00:48;100925.75;;;21.94
53667;BMP280;39568;51.026;5.468;2023-05-07T13:03:21;100929.44;;;21.45
53667;BMP280;39568;51.026;5.468;2023-05-07T13:05:50;100924.19;;;21.13
53667;BMP280;39568;51.026;5.468;2023-05-07T13:08:27;100922.50;;;21.00
53667;BMP280;39568;51.026;5.468;2023-05-07T13:10:55;100924.34;;;21.32
53667;BMP280;39568;51.026;5.468;2023-05-07T13:13:29;100919.22;;;21.70
53667;BMP280;39568;51.026;5.468;2023-05-07T13:15:55;100920.56;;;22.15
53667;BMP280;39568;51.026;5.468;2023-05-07T13:18:23;100918.63;;;21.98
53667;BMP280;39568;51.026;5.468;2023-05-07T13:20:53;100921.19;;;21.69
53667;BMP280;39568;51.026;5.468;2023-05-07T13:23:22;100917.72;;;21.59
53667;BMP280;39568;51.026;5.468;2023-05-07T13:25:49;100924.13;;;21.20
53667;BMP280;39568;51.026;5.468;2023-05-07T13:28:17;100921.00;;;21.24
53667;BMP280;39568;51.026;5.468;2023-05-07T13:30:44;100920.50;;;21.52
53667;BMP280;39568;51.026;5.468;2023-05-07T13:33:12;100916.44;;;21.87
53667;BMP280;39568;51.026;5.468;2023-05-07T13:35:40;100910.41;;;21.79
53667;BMP280;39568;51.026;5.468;2023-05-07T13:38:10;100909.91;;;21.63
53667;BMP280;39568;51.026;5.468;2023-05-07T13:40:37;100911.56;;;21.15
53667;BMP280;39568;51.026;5.468;2023-05-07T13:43:05;100919.78;;;21.95
53667;BMP280;39568;51.026;5.468;2023-05-07T13:45:32;100917.28;;;22.16
53667;BMP280;39568;51.026;5.468;2023-05-07T13:47:58;100912.78;;;22.28
53667;BMP280;39568;51.026;5.468;2023-05-07T13:50:25;100912.25;;;22.03
53667;BMP280;39568;51.026;5.468;2023-05-07T13:52:55;100911.19;;;21.89
53667;BMP280;39568;51.026;5.468;2023-05-07T13:55:24;100911.75;;;21.61
53667;BMP280;39568;51.026;5.468;2023-05-07T13:57:55;100909.78;;;21.71
53667;BMP280;39568;51.026;5.468;2023-05-07T14:00:23;100913.88;;;21.89
53667;BMP280;39568;51.026;5.468;2023-05-07T14:02:49;100920.22;;;22.01
53667;BMP280;39568;51.026;5.468;2023-05-07T14:05:16;100918.97;;;22.48
53667;BMP280;39568;51.026;5.468;2023-05-07T14:07:43;100916.84;;;22.10
53667;BMP280;39568;51.026;5.468;2023-05-07T14:10:10;100926.47;;;21.67
53667;BMP280;39568;51.026;5.468;2023-05-07T14:12:39;100931.28;;;22.22